createdAt,value
2023-05-22T00:11:15.005Z,96.2
2023-05-22T00:31:14.965Z,96.8
2023-05-22T00:51:14.934Z,97
2023-05-22T01:11:14.892Z,97.3
2023-05-22T01:31:14.855Z,97.6
2023-05-22T01:51:14.819Z,97.8
2023-05-22T02:31:14.755Z,98.1
2023-05-22T02:51:14.690Z,98.2
2023-05-22T03:11:14.658Z,98.3
2023-05-22T03:31:14.616Z,98.4
2023-05-22T03:51:14.620Z,98.6
2023-05-22T04:11:14.562Z,98.7
2023-05-22T04:31:14.525Z,98.7
2023-05-22T04:51:14.459Z,98.8
2023-05-22T05:11:14.432Z,98.9
2023-05-22T05:31:14.392Z,98.9
2023-05-22T05:51:14.343Z,98.9
2023-05-22T06:31:14.272Z,98.6
2023-05-22T06:51:14.245Z,97.8
2023-05-22T07:11:14.221Z,94.7
2023-05-22T07:31:14.246Z,90.8
2023-05-22T07:51:14.095Z,85.9
2023-05-22T08:11:14.058Z,78.2
2023-05-22T08:31:14.030Z,74.5
2023-05-22T09:11:13.929Z,67.1
2023-05-22T09:31:13.904Z,66.7
2023-05-22T09:51:13.847Z,60.6
2023-05-22T10:11:13.799Z,59.4
2023-05-22T10:31:13.770Z,58.4
2023-05-22T10:51:13.724Z,57.3
2023-05-22T11:31:13.749Z,54.7
2023-05-22T11:51:13.604Z,56.3
2023-05-22T12:11:13.581Z,57.4
2023-05-22T12:31:13.522Z,58.7
2023-05-22T12:51:13.490Z,59.5
2023-05-22T13:11:13.490Z,54.1
2023-05-22T13:31:13.377Z,56.6
2023-05-22T13:51:13.334Z,57.2
2023-05-22T14:11:13.350Z,54.7
2023-05-22T14:31:13.319Z,62.2
2023-05-22T14:51:13.219Z,55.6
2023-05-22T15:11:13.180Z,51.1
2023-05-22T16:11:13.055Z,52.9
2023-05-22T16:31:13.092Z,56.1
2023-05-22T16:51:12.977Z,66.2
2023-05-22T17:11:12.926Z,70
2023-05-22T17:31:12.890Z,72.4
2023-05-22T18:11:12.806Z,81.7
2023-05-22T18:31:12.854Z,82.9
2023-05-22T18:51:12.719Z,81.8
2023-05-22T19:11:12.667Z,82.8
2023-05-22T19:31:12.711Z,81
2023-05-22T19:51:12.616Z,77.2
2023-05-22T20:11:12.545Z,72.5
2023-05-22T20:31:19.548Z,72.3
2023-05-22T20:51:12.467Z,75.6
2023-05-22T21:11:12.479Z,75.7
2023-05-22T21:31:12.392Z,79.1
2023-05-22T21:51:12.353Z,78.9
2023-05-22T22:11:12.296Z,79.8
2023-05-22T22:31:12.264Z,81
2023-05-22T22:51:12.238Z,84.4
2023-05-22T23:11:12.192Z,86.2
2023-05-22T23:31:12.177Z,86.3
